createdAt,value
2023-03-28T00:02:07.088Z,18.3
2023-03-28T00:07:58.942Z,18.3
2023-03-28T00:13:19.946Z,18.3
2023-03-28T00:18:56.199Z,18.3
2023-03-28T00:24:46.832Z,18.2
2023-03-28T00:30:06.900Z,18.2
2023-03-28T00:35:43.354Z,18.1
2023-03-28T00:41:34.958Z,18.1
2023-03-28T00:47:28.448Z,18
2023-03-28T00:53:05.129Z,17.9
2023-03-28T00:58:56.079Z,17.9
2023-03-28T01:04:32.896Z,17.9
2023-03-28T01:10:09.214Z,17.9
2023-03-28T01:15:48.467Z,17.9
2023-03-28T01:21:08.751Z,17.8
2023-03-28T01:26:41.189Z,17.8
2023-03-28T01:31:30.964Z,17.8
2023-03-28T01:37:08.302Z,17.8
2023-03-28T01:42:44.477Z,17.8
2023-03-28T01:48:21.543Z,17.7
2023-03-28T01:53:57.078Z,17.6
2023-03-28T01:59:40.471Z,17.6
2023-03-28T02:05:32.137Z,17.6
2023-03-28T02:11:08.511Z,17.6
2023-03-28T02:16:59.726Z,17.5
2023-03-28T02:22:51.401Z,17.5
2023-03-28T02:28:27.877Z,17.4
2023-03-28T02:34:19.548Z,17.4
2023-03-28T02:40:11.300Z,17.6
2023-03-28T02:46:05.671Z,17.9
2023-03-28T02:51:51.138Z,18
2023-03-28T02:57:26.931Z,18.1
2023-03-28T03:03:18.856Z,18.1
2023-03-28T03:08:56.452Z,18.2
2023-03-28T03:20:09.336Z,18.3
2023-03-28T03:25:47.196Z,18.3
2023-03-28T03:31:17.102Z,18.3
2023-03-28T03:36:56.762Z,18.4
2023-03-28T03:42:33.227Z,18.4
2023-03-28T03:47:54.457Z,18.4
2023-03-28T03:53:36.572Z,18.4
2023-03-28T03:58:57.434Z,18.5
2023-03-28T04:04:47.363Z,18.5
2023-03-28T04:10:23.197Z,18.5
2023-03-28T04:15:59.551Z,18.6
2023-03-28T04:21:47.138Z,18.6
2023-03-28T04:27:48.282Z,18.6
2023-03-28T04:33:09.927Z,18.6
2023-03-28T04:49:21.313Z,18.8
2023-03-28T04:55:13.056Z,18.8
2023-03-28T05:01:04.981Z,18.8
2023-03-28T05:06:42.883Z,18.8
2023-03-28T05:12:34.441Z,18.8
2023-03-28T05:18:30.256Z,18.8
2023-03-28T05:24:25.482Z,18.8
2023-03-28T05:30:15.687Z,18.8
2023-03-28T05:36:08.104Z,18.8
2023-03-28T05:41:59.929Z,18.9
2023-03-28T05:47:50.579Z,18.9
2023-03-28T05:53:42.171Z,18.9
2023-03-28T05:59:22.461Z,18.9
2023-03-28T06:05:15.712Z,18.9
2023-03-28T06:11:20.762Z,18.9
2023-03-28T06:17:20.797Z,18.9
2023-03-28T06:23:29.428Z,18.9
2023-03-28T06:29:05.488Z,18.9
2023-03-28T06:34:58.565Z,18.9
2023-03-28T06:40:50.868Z,18.9
2023-03-28T06:46:42.705Z,19
2023-03-28T06:52:19.390Z,19
2023-03-28T06:57:55.039Z,19
2023-03-28T07:03:48.745Z,19
2023-03-28T07:09:42.210Z,19
2023-03-28T07:15:19.380Z,19
2023-03-28T07:21:20.230Z,19
2023-03-28T07:27:30.545Z,18.9
2023-03-28T07:33:53.916Z,18.8
2023-03-28T07:45:05.703Z,18.6
2023-03-28T07:50:42.206Z,18.6
2023-03-28T07:56:44.108Z,18.5
2023-03-28T08:02:36.364Z,18.4
2023-03-28T08:08:42.742Z,18.4
2023-03-28T08:14:34.525Z,18.4
2023-03-28T08:20:38.615Z,18.4
2023-03-28T08:26:24.724Z,18.3
2023-03-28T08:32:15.939Z,18.3
2023-03-28T08:38:10.608Z,18.3
2023-03-28T08:44:02.752Z,18.3
2023-03-28T08:49:39.462Z,18.3
2023-03-28T08:55:33.261Z,18.3
2023-03-28T09:01:25.978Z,18.3
2023-03-28T09:07:37.018Z,19.3
2023-03-28T09:13:29.431Z,19.6
2023-03-28T09:19:05.245Z,19.6
2023-03-28T09:25:19.824Z,19.4
2023-03-28T09:31:13.013Z,19.3
2023-03-28T09:37:01.898Z,19.6
2023-03-28T09:42:54.006Z,19.6
2023-03-28T09:48:56.682Z,20.9
2023-03-28T09:54:43.082Z,21.6
2023-03-28T10:00:44.071Z,22.4
2023-03-28T10:06:36.762Z,22.1
2023-03-28T10:12:27.825Z,22.1
2023-03-28T10:18:19.260Z,23.4
2023-03-28T10:24:10.284Z,23.9
2023-03-28T10:30:01.050Z,24.7
2023-03-28T10:35:39.254Z,26.1
2023-03-28T10:41:31.836Z,28
2023-03-28T10:47:23.039Z,29.1
2023-03-28T10:53:14.567Z,29.3
2023-03-28T10:59:06.772Z,30.6
2023-03-28T11:04:59.095Z,30.4
2023-03-28T11:11:09.570Z,30.2
2023-03-28T11:17:17.369Z,31.6
2023-03-28T11:23:04.927Z,33.1
2023-03-28T11:29:10.266Z,33
2023-03-28T11:35:02.136Z,33.4
2023-03-28T11:40:55.517Z,34.5
2023-03-28T11:47:00.709Z,35.3
2023-03-28T11:52:53.402Z,36
2023-03-28T11:58:44.876Z,36.6
2023-03-28T12:04:46.355Z,37.4
2023-03-28T12:10:55.009Z,37.6
2023-03-28T12:16:58.828Z,37.7
2023-03-28T12:22:51.804Z,38.5
2023-03-28T12:28:43.289Z,39.1
2023-03-28T12:34:20.259Z,38.6
2023-03-28T12:40:11.793Z,38.8
2023-03-28T12:45:49.143Z,38.4
2023-03-28T12:51:41.268Z,39.1
2023-03-28T12:57:50.730Z,39.9
2023-03-28T13:03:26.864Z,39.6
2023-03-28T13:09:19.154Z,39.1
2023-03-28T13:15:11.014Z,39.9
2023-03-28T13:21:03.945Z,39.3
2023-03-28T13:26:25.661Z,39.4
2023-03-28T13:32:17.494Z,39
2023-03-28T13:38:12.524Z,38.5
2023-03-28T13:43:48.718Z,38.8
2023-03-28T13:49:35.871Z,39.1
2023-03-28T13:55:24.951Z,39.6
2023-03-28T14:01:16.818Z,39.6
2023-03-28T14:07:10.461Z,39.3
2023-03-28T14:13:02.050Z,39.3
2023-03-28T14:18:55.890Z,39.1
2023-03-28T14:24:56.535Z,38.9
2023-03-28T14:30:36.300Z,38.4
2023-03-28T14:36:38.053Z,38.2
2023-03-28T14:42:29.073Z,37.6
2023-03-28T14:48:20.868Z,37.2
2023-03-28T14:54:14.470Z,35.9
2023-03-28T15:00:06.163Z,34.1
2023-03-28T15:05:59.088Z,32.6
2023-03-28T15:11:36.969Z,31.4
2023-03-28T15:17:30.918Z,30.4
2023-03-28T15:23:22.597Z,29.4
2023-03-28T15:29:13.969Z,28.7
2023-03-28T15:34:53.155Z,28.1
2023-03-28T15:40:46.945Z,27.4
2023-03-28T15:46:37.787Z,26.9
2023-03-28T15:52:31.443Z,26.5
2023-03-28T15:58:39.959Z,26.1
2023-03-28T16:04:31.602Z,25.8
2023-03-28T16:10:26.784Z,25.5
2023-03-28T16:16:18.889Z,25.3
2023-03-28T16:21:54.976Z,25.1
2023-03-28T16:27:31.285Z,24.9
2023-03-28T16:33:08.707Z,24.7
2023-03-28T16:39:00.804Z,24.5
2023-03-28T16:44:51.929Z,24.3
2023-03-28T16:50:43.341Z,24.1
2023-03-28T16:56:34.542Z,23.8
2023-03-28T17:01:55.917Z,23.4
2023-03-28T17:07:51.150Z,23.1
2023-03-28T17:13:42.901Z,22.8
2023-03-28T17:19:35.017Z,22.5
2023-03-28T17:24:55.732Z,22.2
2023-03-28T17:31:04.297Z,21.9
2023-03-28T17:36:57.843Z,21.7
2023-03-28T17:42:49.959Z,21.5
2023-03-28T17:48:42.813Z,21.3
2023-03-28T17:54:22.325Z,21.2
2023-03-28T18:00:14.652Z,21.1
2023-03-28T18:05:52.416Z,21
2023-03-28T18:11:46.981Z,20.8
2023-03-28T18:17:23.941Z,20.8
2023-03-28T18:22:59.960Z,20.7
2023-03-28T18:28:54.093Z,20.6
2023-03-28T18:34:35.356Z,20.6
2023-03-28T18:40:14.270Z,20.5
2023-03-28T18:45:51.414Z,20.4
2023-03-28T18:51:28.781Z,20.4
2023-03-28T18:57:06.087Z,20.4
2023-03-28T19:02:44.122Z,20.3
2023-03-28T19:08:22.647Z,20.3
2023-03-28T19:13:44.573Z,20.3
2023-03-28T19:19:24.533Z,20.2
2023-03-28T19:25:02.229Z,20.1
2023-03-28T19:30:40.678Z,20.1
2023-03-28T19:36:35.083Z,20.1
2023-03-28T19:42:14.443Z,20.1
2023-03-28T19:47:55.672Z,20
2023-03-28T19:53:48.198Z,19.9
2023-03-28T19:59:41.349Z,19.9
2023-03-28T20:05:18.644Z,19.8
2023-03-28T20:10:42.107Z,19.8
2023-03-28T20:16:20.581Z,19.8
2023-03-28T20:22:12.051Z,19.7
2023-03-28T20:27:48.614Z,19.7
2023-03-28T20:33:40.528Z,19.6
2023-03-28T20:39:32.392Z,19.6
2023-03-28T20:45:10.373Z,19.6
2023-03-28T20:51:02.823Z,19.6
2023-03-28T20:56:57.948Z,19.6
2023-03-28T21:02:50.354Z,19.6
2023-03-28T21:08:41.736Z,19.6
2023-03-28T21:14:33.098Z,19.5
2023-03-28T21:20:09.205Z,19.5
2023-03-28T21:26:00.700Z,19.5
2023-03-28T21:31:21.413Z,19.5
2023-03-28T21:36:43.550Z,19.5
2023-03-28T21:42:19.998Z,19.5
2023-03-28T21:47:39.942Z,19.5
2023-03-28T21:53:01.091Z,19.4
2023-03-28T21:58:52.755Z,19.4
2023-03-28T22:04:31.710Z,19.4
2023-03-28T22:15:07.541Z,19.4
2023-03-28T22:20:27.847Z,19.4
2023-03-28T22:25:47.983Z,19.4
2023-03-28T22:31:08.777Z,19.4
2023-03-28T22:36:44.402Z,19.4
2023-03-28T22:42:20.124Z,19.4
2023-03-28T22:47:41.497Z,19.4
2023-03-28T22:53:18.319Z,19.4
2023-03-28T22:58:54.996Z,19.4
2023-03-28T23:04:31.575Z,19.4
2023-03-28T23:10:23.134Z,19.4
2023-03-28T23:15:59.334Z,19.4
2023-03-28T23:21:52.186Z,19.4
2023-03-28T23:27:28.143Z,19.3
2023-03-28T23:33:21.767Z,19.4
2023-03-28T23:39:13.845Z,19.4
2023-03-28T23:44:49.641Z,19.3
2023-03-28T23:50:10.620Z,19.3
2023-03-28T23:55:46.961Z,19.3
